sensor_id;sensor_type;location;lat;lon;timestamp;temperature;humidity
11284;DHT22;5698;47.332;11.180;2024-03-08T00:02:09;0.70;99.90
11284;DHT22;5698;47.332;11.180;2024-03-08T00:04:36;0.70;99.90
11284;DHT22;5698;47.332;11.180;2024-03-08T00:07:03;0.70;99.90
11284;DHT22;5698;47.332;11.180;2024-03-08T00:09:32;0.60;99.90
11284;DHT22;5698;47.332;11.180;2024-03-08T00:11:59;0.60;99.90
11284;DHT22;5698;47.332;11.180;2024-03-08T00:14:26;0.60;99.90
11284;DHT22;5698;47.332;11.180;2024-03-08T00:16:54;0.60;99.90
11284;DHT22;5698;47.332;11.180;2024-03-08T00:19:21;0.60;99.90
11284;DHT22;5698;47.332;11.180;2024-03-08T00:21:48;0.50;99.90
11284;DHT22;5698;47.332;11.180;2024-03-08T00:24:15;0.50;99.90
11284;DHT22;5698;47.332;11.180;2024-03-08T00:26:42;0.40;99.90
11284;DHT22;5698;47.332;11.180;2024-03-08T00:29:09;0.40;99.90
11284;DHT22;5698;47.332;11.180;2024-03-08T00:31:36;0.40;99.90
11284;DHT22;5698;47.332;11.180;2024-03-08T00:34:05;0.40;99.90
11284;DHT22;5698;47.332;11.180;2024-03-08T00:36:32;0.30;99.90
11284;DHT22;5698;47.332;11.180;2024-03-08T00:38:59;0.30;99.90
11284;DHT22;5698;47.332;11.180;2024-03-08T00:41:27;0.30;99.90
11284;DHT22;5698;47.332;11.180;2024-03-08T00:43:55;0.30;99.90
11284;DHT22;5698;47.332;11.180;2024-03-08T00:46:22;0.30;99.90
11284;DHT22;5698;47.332;11.180;2024-03-08T00:48:49;0.20;99.90
11284;DHT22;5698;47.332;11.180;2024-03-08T00:51:17;0.20;99.90
11284;DHT22;5698;47.332;11.180;2024-03-08T00:53:44;0.20;99.90
11284;DHT22;5698;47.332;11.180;2024-03-08T00:56:12;0.10;99.90
11284;DHT22;5698;47.332;11.180;2024-03-08T00:58:39;0.10;99.90
11284;DHT22;5698;47.332;11.180;2024-03-08T01:01:06;0.10;99.90
11284;DHT22;5698;47.332;11.180;2024-03-08T01:03:33;0.10;99.90
11284;DHT22;5698;47.332;11.180;2024-03-08T01:06:00;0.10;99.90
11284;DHT22;5698;47.332;11.180;2024-03-08T01:08:28;0.10;99.90
11284;DHT22;5698;47.332;11.180;2024-03-08T01:10:55;0.10;99.90
11284;DHT22;5698;47.332;11.180;2024-03-08T01:13:23;0.10;99.90
11284;DHT22;5698;47.332;11.180;2024-03-08T01:15:49;0.10;99.90
11284;DHT22;5698;47.332;11.180;2024-03-08T01:18:16;0.10;99.90
11284;DHT22;5698;47.332;11.180;2024-03-08T01:20:45;0.00;99.90
11284;DHT22;5698;47.332;11.180;2024-03-08T01:23:12;0.00;99.90
11284;DHT22;5698;47.332;11.180;2024-03-08T01:25:40;0.00;99.90
11284;DHT22;5698;47.332;11.180;2024-03-08T01:28:09;-0.10;99.90
11284;DHT22;5698;47.332;11.180;2024-03-08T01:30:36;-0.10;99.90
11284;DHT22;5698;47.332;11.180;2024-03-08T01:33:04;-0.10;99.90
11284;DHT22;5698;47.332;11.180;2024-03-08T01:35:31;-0.10;99.90
11284;DHT22;5698;47.332;11.180;2024-03-08T01:37:58;-0.10;99.90
11284;DHT22;5698;47.332;11.180;2024-03-08T01:40:25;-0.20;99.90
11284;DHT22;5698;47.332;11.180;2024-03-08T01:42:54;-0.20;99.90
11284;DHT22;5698;47.332;11.180;2024-03-08T01:45:21;-0.20;99.90
11284;DHT22;5698;47.332;11.180;2024-03-08T01:47:48;-0.30;99.90
11284;DHT22;5698;47.332;11.180;2024-03-08T01:50:15;-0.30;99.90
11284;DHT22;5698;47.332;11.180;2024-03-08T01:52:42;-0.30;99.90
11284;DHT22;5698;47.332;11.180;2024-03-08T01:55:11;-0.40;99.90
11284;DHT22;5698;47.332;11.180;2024-03-08T01:57:41;-0.40;99.90
11284;DHT22;5698;47.332;11.180;2024-03-08T02:00:11;-0.40;99.90
11284;DHT22;5698;47.332;11.180;2024-03-08T02:02:42;-0.50;99.90
11284;DHT22;5698;47.332;11.180;2024-03-08T02:05:10;-0.50;99.90
11284;DHT22;5698;47.332;11.180;2024-03-08T02:07:37;-0.50;99.90
11284;DHT22;5698;47.332;11.180;2024-03-08T02:10:05;-0.50;99.90
11284;DHT22;5698;47.332;11.180;2024-03-08T02:12:32;-0.50;99.90
11284;DHT22;5698;47.332;11.180;2024-03-08T02:14:59;-0.50;99.90
11284;DHT22;5698;47.332;11.180;2024-03-08T02:17:27;-0.50;99.90
11284;DHT22;5698;47.332;11.180;2024-03-08T02:19:56;-0.50;99.90
11284;DHT22;5698;47.332;11.180;2024-03-08T02:22:24;-0.50;99.90
11284;DHT22;5698;47.332;11.180;2024-03-08T02:24:51;-0.50;99.90
11284;DHT22;5698;47.332;11.180;2024-03-08T02:27:23;-0.50;99.90
11284;DHT22;5698;47.332;11.180;2024-03-08T02:29:51;-0.50;99.90
11284;DHT22;5698;47.332;11.180;2024-03-08T02:32:22;-0.50;99.90
11284;DHT22;5698;47.332;11.180;2024-03-08T02:34:49;-0.50;99.90
11284;DHT22;5698;47.332;11.180;2024-03-08T02:37:16;-0.50;99.90
11284;DHT22;5698;47.332;11.180;2024-03-08T02:39:44;-0.60;99.90
11284;DHT22;5698;47.332;11.180;2024-03-08T02:42:11;-0.60;99.90
11284;DHT22;5698;47.332;11.180;2024-03-08T02:44:42;-0.60;99.90
11284;DHT22;5698;47.332;11.180;2024-03-08T02:47:09;-0.60;99.90
11284;DHT22;5698;47.332;11.180;2024-03-08T02:49:37;-0.70;99.90
11284;DHT22;5698;47.332;11.180;2024-03-08T02:52:04;-0.60;99.90
11284;DHT22;5698;47.332;11.180;2024-03-08T02:54:33;-0.70;99.90
11284;DHT22;5698;47.332;11.180;2024-03-08T02:57:01;-0.80;99.90
11284;DHT22;5698;47.332;11.180;2024-03-08T02:59:29;-0.80;99.90
11284;DHT22;5698;47.332;11.180;2024-03-08T03:01:56;-0.80;99.90
11284;DHT22;5698;47.332;11.180;2024-03-08T03:04:23;-0.80;99.90
11284;DHT22;5698;47.332;11.180;2024-03-08T03:06:50;-0.80;99.90
11284;DHT22;5698;47.332;11.180;2024-03-08T03:09:17;-0.80;99.90
11284;DHT22;5698;47.332;11.180;2024-03-08T03:11:49;-0.80;99.90
11284;DHT22;5698;47.332;11.180;2024-03-08T03:14:17;-0.80;99.90
11284;DHT22;5698;47.332;11.180;2024-03-08T03:16:44;-0.80;99.90
11284;DHT22;5698;47.332;11.180;2024-03-08T03:19:11;-0.80;99.90
11284;DHT22;5698;47.332;11.180;2024-03-08T03:21:38;-0.80;99.90
11284;DHT22;5698;47.332;11.180;2024-03-08T03:24:06;-0.80;99.90
11284;DHT22;5698;47.332;11.180;2024-03-08T03:26:35;-0.80;99.90
11284;DHT22;5698;47.332;11.180;2024-03-08T03:29:04;-0.80;99.90
11284;DHT22;5698;47.332;11.180;2024-03-08T03:31:35;-0.80;99.90
11284;DHT22;5698;47.332;11.180;2024-03-08T03:34:03;-0.80;99.90
11284;DHT22;5698;47.332;11.180;2024-03-08T03:36:30;-0.80;99.90
11284;DHT22;5698;47.332;11.180;2024-03-08T03:38:57;-0.80;99.90
11284;DHT22;5698;47.332;11.180;2024-03-08T03:41:36;-0.70;99.90
11284;DHT22;5698;47.332;11.180;2024-03-08T03:44:04;-0.70;99.90
11284;DHT22;5698;47.332;11.180;2024-03-08T03:46:32;-0.70;99.90
11284;DHT22;5698;47.332;11.180;2024-03-08T03:49:00;-0.70;99.90
11284;DHT22;5698;47.332;11.180;2024-03-08T03:51:29;-0.70;99.90
11284;DHT22;5698;47.332;11.180;2024-03-08T03:53:56;-0.70;99.90
11284;DHT22;5698;47.332;11.180;2024-03-08T03:56:25;-0.70;99.90
11284;DHT22;5698;47.332;11.180;2024-03-08T03:58:52;-0.70;99.90
11284;DHT22;5698;47.332;11.180;2024-03-08T04:01:19;-0.70;99.90
11284;DHT22;5698;47.332;11.180;2024-03-08T04:03:46;-0.70;99.90
11284;DHT22;5698;47.332;11.180;2024-03-08T04:06:14;-0.70;99.90
11284;DHT22;5698;47.332;11.180;2024-03-08T04:08:42;-0.70;99.90
11284;DHT22;5698;47.332;11.180;2024-03-08T04:11:08;-0.70;99.90
11284;DHT22;5698;47.332;11.180;2024-03-08T04:13:36;-0.70;99.90
11284;DHT22;5698;47.332;11.180;2024-03-08T04:16:03;-0.70;99.90
11284;DHT22;5698;47.332;11.180;2024-03-08T04:18:33;-0.70;99.90
11284;DHT22;5698;47.332;11.180;2024-03-08T04:21:04;-0.70;99.90
11284;DHT22;5698;47.332;11.180;2024-03-08T04:23:34;-0.60;99.90
11284;DHT22;5698;47.332;11.180;2024-03-08T04:26:02;-0.60;99.90
11284;DHT22;5698;47.332;11.180;2024-03-08T04:28:31;-0.60;99.90
11284;DHT22;5698;47.332;11.180;2024-03-08T04:30:58;-0.50;99.90
11284;DHT22;5698;47.332;11.180;2024-03-08T04:33:26;-0.50;99.90
11284;DHT22;5698;47.332;11.180;2024-03-08T04:35:53;-0.50;99.90
11284;DHT22;5698;47.332;11.180;2024-03-08T04:38:20;-0.40;99.90
11284;DHT22;5698;47.332;11.180;2024-03-08T04:40:49;-0.50;99.90
11284;DHT22;5698;47.332;11.180;2024-03-08T04:43:16;-0.50;99.90
11284;DHT22;5698;47.332;11.180;2024-03-08T04:45:44;-0.50;99.90
11284;DHT22;5698;47.332;11.180;2024-03-08T04:48:11;-0.50;99.90
11284;DHT22;5698;47.332;11.180;2024-03-08T04:50:38;-0.50;99.90
11284;DHT22;5698;47.332;11.180;2024-03-08T04:53:05;-0.60;99.90
11284;DHT22;5698;47.332;11.180;2024-03-08T04:55:33;-0.60;99.90
11284;DHT22;5698;47.332;11.180;2024-03-08T04:58:02;-0.60;99.90
11284;DHT22;5698;47.332;11.180;2024-03-08T05:00:29;-0.70;99.90
11284;DHT22;5698;47.332;11.180;2024-03-08T05:02:56;-0.70;99.90
11284;DHT22;5698;47.332;11.180;2024-03-08T05:05:23;-0.80;99.90
11284;DHT22;5698;47.332;11.180;2024-03-08T05:07:51;-0.80;99.90
11284;DHT22;5698;47.332;11.180;2024-03-08T05:10:19;-0.90;99.90
11284;DHT22;5698;47.332;11.180;2024-03-08T05:12:46;-0.90;99.90
11284;DHT22;5698;47.332;11.180;2024-03-08T05:15:14;-0.90;99.90
11284;DHT22;5698;47.332;11.180;2024-03-08T05:17:41;-0.90;99.90
11284;DHT22;5698;47.332;11.180;2024-03-08T05:20:09;-0.90;99.90
11284;DHT22;5698;47.332;11.180;2024-03-08T05:22:39;-0.90;99.90
11284;DHT22;5698;47.332;11.180;2024-03-08T05:25:07;-0.90;99.90
11284;DHT22;5698;47.332;11.180;2024-03-08T05:27:35;-1.00;99.90
11284;DHT22;5698;47.332;11.180;2024-03-08T05:30:02;-1.00;99.90
11284;DHT22;5698;47.332;11.180;2024-03-08T05:32:31;-1.10;99.90
11284;DHT22;5698;47.332;11.180;2024-03-08T05:34:58;-1.10;99.90
11284;DHT22;5698;47.332;11.180;2024-03-08T05:37:25;-1.10;99.90
11284;DHT22;5698;47.332;11.180;2024-03-08T05:39:52;-1.10;99.90
11284;DHT22;5698;47.332;11.180;2024-03-08T05:42:19;-1.10;99.90
11284;DHT22;5698;47.332;11.180;2024-03-08T05:44:46;-1.10;99.90
11284;DHT22;5698;47.332;11.180;2024-03-08T05:47:15;-1.10;99.90
11284;DHT22;5698;47.332;11.180;2024-03-08T05:49:45;-1.10;99.90
11284;DHT22;5698;47.332;11.180;2024-03-08T05:52:12;-1.00;99.90
11284;DHT22;5698;47.332;11.180;2024-03-08T05:54:40;-1.00;99.90
11284;DHT22;5698;47.332;11.180;2024-03-08T05:57:07;-1.00;99.90
11284;DHT22;5698;47.332;11.180;2024-03-08T05:59:34;-1.10;99.90
11284;DHT22;5698;47.332;11.180;2024-03-08T06:02:01;-1.10;99.90
11284;DHT22;5698;47.332;11.180;2024-03-08T06:04:29;-1.00;99.90
11284;DHT22;5698;47.332;11.180;2024-03-08T06:06:57;-1.10;99.90
11284;DHT22;5698;47.332;11.180;2024-03-08T06:09:24;-1.10;99.90
11284;DHT22;5698;47.332;11.180;2024-03-08T06:11:51;-1.20;99.90
11284;DHT22;5698;47.332;11.180;2024-03-08T06:14:19;-1.20;99.90
11284;DHT22;5698;47.332;11.180;2024-03-08T06:16:46;-1.20;99.90
11284;DHT22;5698;47.332;11.180;2024-03-08T06:19:15;-1.20;99.90
11284;DHT22;5698;47.332;11.180;2024-03-08T06:21:42;-1.20;99.90
11284;DHT22;5698;47.332;11.180;2024-03-08T06:24:11;-1.30;99.90
11284;DHT22;5698;47.332;11.180;2024-03-08T06:26:38;-1.30;99.90
11284;DHT22;5698;47.332;11.180;2024-03-08T06:29:05;-1.30;99.90
11284;DHT22;5698;47.332;11.180;2024-03-08T06:31:32;-1.40;99.90
11284;DHT22;5698;47.332;11.180;2024-03-08T06:33:59;-1.40;99.90
11284;DHT22;5698;47.332;11.180;2024-03-08T06:36:27;-1.40;99.90
11284;DHT22;5698;47.332;11.180;2024-03-08T06:38:54;-1.50;99.90
11284;DHT22;5698;47.332;11.180;2024-03-08T06:41:24;-1.50;99.90
11284;DHT22;5698;47.332;11.180;2024-03-08T06:43:51;-1.40;99.90
11284;DHT22;5698;47.332;11.180;2024-03-08T06:46:22;-1.40;99.90
11284;DHT22;5698;47.332;11.180;2024-03-08T06:48:49;-1.40;99.90
11284;DHT22;5698;47.332;11.180;2024-03-08T06:51:16;-1.40;99.90
11284;DHT22;5698;47.332;11.180;2024-03-08T06:53:43;-1.40;99.90
11284;DHT22;5698;47.332;11.180;2024-03-08T06:56:11;-1.30;99.90
11284;DHT22;5698;47.332;11.180;2024-03-08T06:58:39;-1.30;99.90
11284;DHT22;5698;47.332;11.180;2024-03-08T07:01:07;-1.30;99.90
11284;DHT22;5698;47.332;11.180;2024-03-08T07:03:41;-1.20;99.90
11284;DHT22;5698;47.332;11.180;2024-03-08T07:06:10;-1.10;99.90
11284;DHT22;5698;47.332;11.180;2024-03-08T07:08:37;-0.80;99.90
11284;DHT22;5698;47.332;11.180;2024-03-08T07:11:04;-0.60;99.90
11284;DHT22;5698;47.332;11.180;2024-03-08T07:13:31;-0.30;99.90
11284;DHT22;5698;47.332;11.180;2024-03-08T07:15:59;-0.10;99.90
11284;DHT22;5698;47.332;11.180;2024-03-08T07:18:26;0.20;99.90
11284;DHT22;5698;47.332;11.180;2024-03-08T07:20:55;0.50;99.90
11284;DHT22;5698;47.332;11.180;2024-03-08T07:23:22;0.70;99.90
11284;DHT22;5698;47.332;11.180;2024-03-08T07:26:06;1.00;99.90
11284;DHT22;5698;47.332;11.180;2024-03-08T07:28:33;1.20;99.90
11284;DHT22;5698;47.332;11.180;2024-03-08T07:31:02;1.30;99.90
11284;DHT22;5698;47.332;11.180;2024-03-08T07:33:43;1.60;99.90
11284;DHT22;5698;47.332;11.180;2024-03-08T07:36:10;2.00;99.90
11284;DHT22;5698;47.332;11.180;2024-03-08T07:38:37;2.30;99.90
11284;DHT22;5698;47.332;11.180;2024-03-08T07:41:04;2.50;99.90
11284;DHT22;5698;47.332;11.180;2024-03-08T07:43:31;2.80;99.90
11284;DHT22;5698;47.332;11.180;2024-03-08T07:45:59;3.00;99.90
11284;DHT22;5698;47.332;11.180;2024-03-08T07:48:27;3.30;99.90
11284;DHT22;5698;47.332;11.180;2024-03-08T07:50:54;3.60;99.90
11284;DHT22;5698;47.332;11.180;2024-03-08T07:53:21;3.80;99.90
11284;DHT22;5698;47.332;11.180;2024-03-08T07:55:50;4.10;99.90
11284;DHT22;5698;47.332;11.180;2024-03-08T07:58:17;4.30;99.90
11284;DHT22;5698;47.332;11.180;2024-03-08T08:00:44;4.60;99.90
11284;DHT22;5698;47.332;11.180;2024-03-08T08:03:11;4.90;99.90
11284;DHT22;5698;47.332;11.180;2024-03-08T08:05:40;5.20;99.90
11284;DHT22;5698;47.332;11.180;2024-03-08T08:08:08;5.40;99.90
11284;DHT22;5698;47.332;11.180;2024-03-08T08:10:36;5.70;99.90
11284;DHT22;5698;47.332;11.180;2024-03-08T08:13:03;6.10;99.90
11284;DHT22;5698;47.332;11.180;2024-03-08T08:15:30;6.40;99.90
11284;DHT22;5698;47.332;11.180;2024-03-08T08:17:59;6.50;99.90
11284;DHT22;5698;47.332;11.180;2024-03-08T08:20:26;6.60;99.90
11284;DHT22;5698;47.332;11.180;2024-03-08T08:22:56;6.60;99.90
11284;DHT22;5698;47.332;11.180;2024-03-08T08:25:24;6.80;99.90
11284;DHT22;5698;47.332;11.180;2024-03-08T08:27:51;7.00;99.90
11284;DHT22;5698;47.332;11.180;2024-03-08T08:30:19;7.20;99.90
11284;DHT22;5698;47.332;11.180;2024-03-08T08:32:46;7.50;99.90
11284;DHT22;5698;47.332;11.180;2024-03-08T08:35:14;7.70;99.90
11284;DHT22;5698;47.332;11.180;2024-03-08T08:37:41;7.90;99.90
11284;DHT22;5698;47.332;11.180;2024-03-08T08:40:10;8.10;99.90
11284;DHT22;5698;47.332;11.180;2024-03-08T08:42:40;8.40;99.90
11284;DHT22;5698;47.332;11.180;2024-03-08T08:45:07;8.40;99.90
11284;DHT22;5698;47.332;11.180;2024-03-08T08:47:35;8.50;99.90
11284;DHT22;5698;47.332;11.180;2024-03-08T08:50:02;8.50;99.10
11284;DHT22;5698;47.332;11.180;2024-03-08T08:52:30;8.80;97.40
11284;DHT22;5698;47.332;11.180;2024-03-08T08:54:57;9.00;97.40
11284;DHT22;5698;47.332;11.180;2024-03-08T08:57:25;9.20;97.10
11284;DHT22;5698;47.332;11.180;2024-03-08T08:59:53;9.30;96.50
11284;DHT22;5698;47.332;11.180;2024-03-08T09:02:21;9.40;96.20
11284;DHT22;5698;47.332;11.180;2024-03-08T09:04:48;9.50;95.70
11284;DHT22;5698;47.332;11.180;2024-03-08T09:07:15;9.60;95.00
11284;DHT22;5698;47.332;11.180;2024-03-08T09:09:44;9.70;94.70
11284;DHT22;5698;47.332;11.180;2024-03-08T09:12:11;9.80;94.50
11284;DHT22;5698;47.332;11.180;2024-03-08T09:14:40;9.80;94.40
11284;DHT22;5698;47.332;11.180;2024-03-08T09:17:07;9.80;94.50
11284;DHT22;5698;47.332;11.180;2024-03-08T09:19:34;9.70;94.60
11284;DHT22;5698;47.332;11.180;2024-03-08T09:22:02;9.80;93.80
11284;DHT22;5698;47.332;11.180;2024-03-08T09:24:29;10.00;92.60
11284;DHT22;5698;47.332;11.180;2024-03-08T09:26:56;10.20;93.40
11284;DHT22;5698;47.332;11.180;2024-03-08T09:29:25;10.20;92.80
11284;DHT22;5698;47.332;11.180;2024-03-08T09:31:53;10.30;92.90
11284;DHT22;5698;47.332;11.180;2024-03-08T09:34:20;10.30;92.90
11284;DHT22;5698;47.332;11.180;2024-03-08T09:36:47;10.40;92.10
11284;DHT22;5698;47.332;11.180;2024-03-08T09:39:14;10.50;92.10
11284;DHT22;5698;47.332;11.180;2024-03-08T09:41:43;10.60;92.50
11284;DHT22;5698;47.332;11.180;2024-03-08T09:44:13;10.70;91.50
11284;DHT22;5698;47.332;11.180;2024-03-08T09:46:41;10.70;91.30
11284;DHT22;5698;47.332;11.180;2024-03-08T09:49:10;10.70;91.80
11284;DHT22;5698;47.332;11.180;2024-03-08T09:51:38;10.90;90.70
11284;DHT22;5698;47.332;11.180;2024-03-08T09:54:07;11.00;90.90
11284;DHT22;5698;47.332;11.180;2024-03-08T09:56:35;11.10;90.40
11284;DHT22;5698;47.332;11.180;2024-03-08T09:59:02;11.20;90.20
11284;DHT22;5698;47.332;11.180;2024-03-08T10:02:07;11.30;89.30
11284;DHT22;5698;47.332;11.180;2024-03-08T10:04:39;11.30;90.10
11284;DHT22;5698;47.332;11.180;2024-03-08T10:07:07;11.30;87.80
11284;DHT22;5698;47.332;11.180;2024-03-08T10:09:35;11.30;88.80
11284;DHT22;5698;47.332;11.180;2024-03-08T10:12:04;11.30;88.70
11284;DHT22;5698;47.332;11.180;2024-03-08T10:14:31;11.40;87.80
11284;DHT22;5698;47.332;11.180;2024-03-08T10:16:58;11.50;87.30
11284;DHT22;5698;47.332;11.180;2024-03-08T10:19:26;11.70;84.80
11284;DHT22;5698;47.332;11.180;2024-03-08T10:21:56;12.00;81.70
11284;DHT22;5698;47.332;11.180;2024-03-08T10:24:24;12.20;81.50
11284;DHT22;5698;47.332;11.180;2024-03-08T10:26:58;12.20;82.00
11284;DHT22;5698;47.332;11.180;2024-03-08T10:29:25;12.30;82.30
11284;DHT22;5698;47.332;11.180;2024-03-08T10:31:54;12.40;81.30
11284;DHT22;5698;47.332;11.180;2024-03-08T10:34:22;12.50;79.60
11284;DHT22;5698;47.332;11.180;2024-03-08T10:36:51;12.30;82.70
11284;DHT22;5698;47.332;11.180;2024-03-08T10:39:22;12.40;81.10
11284;DHT22;5698;47.332;11.180;2024-03-08T10:41:53;12.50;80.70
11284;DHT22;5698;47.332;11.180;2024-03-08T10:44:40;12.60;80.50
11284;DHT22;5698;47.332;11.180;2024-03-08T10:47:15;12.70;80.90
11284;DHT22;5698;47.332;11.180;2024-03-08T10:49:51;12.90;79.50
11284;DHT22;5698;47.332;11.180;2024-03-08T10:52:21;13.00;78.10
11284;DHT22;5698;47.332;11.180;2024-03-08T10:54:52;13.00;76.00
11284;DHT22;5698;47.332;11.180;2024-03-08T10:57:22;13.00;77.80
11284;DHT22;5698;47.332;11.180;2024-03-08T10:59:50;12.90;76.30
11284;DHT22;5698;47.332;11.180;2024-03-08T11:02:19;13.00;73.80
11284;DHT22;5698;47.332;11.180;2024-03-08T11:04:46;12.90;76.10
11284;DHT22;5698;47.332;11.180;2024-03-08T11:07:15;13.00;74.70
11284;DHT22;5698;47.332;11.180;2024-03-08T11:09:44;13.20;74.30
11284;DHT22;5698;47.332;11.180;2024-03-08T11:12:23;13.40;75.10
11284;DHT22;5698;47.332;11.180;2024-03-08T11:14:55;13.50;74.40
11284;DHT22;5698;47.332;11.180;2024-03-08T11:17:41;13.70;71.40
11284;DHT22;5698;47.332;11.180;2024-03-08T11:20:12;13.80;72.90
11284;DHT22;5698;47.332;11.180;2024-03-08T11:22:47;13.80;70.20
11284;DHT22;5698;47.332;11.180;2024-03-08T11:25:31;13.80;69.80
11284;DHT22;5698;47.332;11.180;2024-03-08T11:28:14;13.70;72.10
11284;DHT22;5698;47.332;11.180;2024-03-08T11:30:44;13.80;70.30
11284;DHT22;5698;47.332;11.180;2024-03-08T11:33:13;13.80;71.30
11284;DHT22;5698;47.332;11.180;2024-03-08T11:35:40;13.80;70.70
11284;DHT22;5698;47.332;11.180;2024-03-08T11:38:11;13.90;72.70
11284;DHT22;5698;47.332;11.180;2024-03-08T11:40:40;13.80;73.40
11284;DHT22;5698;47.332;11.180;2024-03-08T11:43:09;13.90;72.10
11284;DHT22;5698;47.332;11.180;2024-03-08T11:45:36;14.00;75.10
11284;DHT22;5698;47.332;11.180;2024-03-08T11:48:04;13.90;75.10
11284;DHT22;5698;47.332;11.180;2024-03-08T11:50:31;13.90;73.70
11284;DHT22;5698;47.332;11.180;2024-03-08T11:53:03;14.00;71.20
11284;DHT22;5698;47.332;11.180;2024-03-08T11:55:30;14.30;69.50
11284;DHT22;5698;47.332;11.180;2024-03-08T11:58:02;14.40;70.70
11284;DHT22;5698;47.332;11.180;2024-03-08T12:00:31;14.50;69.90
11284;DHT22;5698;47.332;11.180;2024-03-08T12:03:05;14.40;72.00
11284;DHT22;5698;47.332;11.180;2024-03-08T12:05:32;14.30;70.40
11284;DHT22;5698;47.332;11.180;2024-03-08T12:08:00;14.30;70.40
11284;DHT22;5698;47.332;11.180;2024-03-08T12:10:27;14.40;70.60
11284;DHT22;5698;47.332;11.180;2024-03-08T12:12:56;14.40;70.10
11284;DHT22;5698;47.332;11.180;2024-03-08T12:15:25;14.60;70.00
11284;DHT22;5698;47.332;11.180;2024-03-08T12:17:55;14.70;69.00
11284;DHT22;5698;47.332;11.180;2024-03-08T12:20:23;14.80;67.30
11284;DHT22;5698;47.332;11.180;2024-03-08T12:22:52;14.80;67.70
11284;DHT22;5698;47.332;11.180;2024-03-08T12:25:20;15.00;67.70
11284;DHT22;5698;47.332;11.180;2024-03-08T12:27:47;15.00;67.60
11284;DHT22;5698;47.332;11.180;2024-03-08T12:30:19;14.90;68.20
11284;DHT22;5698;47.332;11.180;2024-03-08T12:32:48;15.00;68.20
11284;DHT22;5698;47.332;11.180;2024-03-08T12:35:19;14.80;68.40
11284;DHT22;5698;47.332;11.180;2024-03-08T12:37:48;14.80;68.60
11284;DHT22;5698;47.332;11.180;2024-03-08T12:40:17;14.90;66.10
11284;DHT22;5698;47.332;11.180;2024-03-08T12:42:44;15.00;67.00
11284;DHT22;5698;47.332;11.180;2024-03-08T12:45:13;15.10;65.90
11284;DHT22;5698;47.332;11.180;2024-03-08T12:47:41;15.10;67.20
11284;DHT22;5698;47.332;11.180;2024-03-08T12:50:10;15.20;65.30
11284;DHT22;5698;47.332;11.180;2024-03-08T12:52:38;15.20;63.50
11284;DHT22;5698;47.332;11.180;2024-03-08T12:55:05;15.10;65.60
11284;DHT22;5698;47.332;11.180;2024-03-08T12:57:34;15.00;64.20
11284;DHT22;5698;47.332;11.180;2024-03-08T13:00:02;15.10;64.70
11284;DHT22;5698;47.332;11.180;2024-03-08T13:02:32;15.10;63.30
11284;DHT22;5698;47.332;11.180;2024-03-08T13:04:59;15.30;62.70
11284;DHT22;5698;47.332;11.180;2024-03-08T13:07:26;15.30;63.10
11284;DHT22;5698;47.332;11.180;2024-03-08T13:09:55;15.30;62.90
11284;DHT22;5698;47.332;11.180;2024-03-08T13:12:22;15.30;62.90
11284;DHT22;5698;47.332;11.180;2024-03-08T13:14:49;15.30;63.30
11284;DHT22;5698;47.332;11.180;2024-03-08T13:17:16;15.20;64.40
11284;DHT22;5698;47.332;11.180;2024-03-08T13:19:44;14.90;67.00
11284;DHT22;5698;47.332;11.180;2024-03-08T13:22:11;15.00;63.70
11284;DHT22;5698;47.332;11.180;2024-03-08T13:24:39;14.90;63.30
11284;DHT22;5698;47.332;11.180;2024-03-08T13:27:08;15.00;62.50
11284;DHT22;5698;47.332;11.180;2024-03-08T13:29:46;15.00;62.30
11284;DHT22;5698;47.332;11.180;2024-03-08T13:32:14;15.00;65.20
11284;DHT22;5698;47.332;11.180;2024-03-08T13:34:41;14.90;65.30
11284;DHT22;5698;47.332;11.180;2024-03-08T13:37:09;14.80;64.20
11284;DHT22;5698;47.332;11.180;2024-03-08T13:39:37;14.70;64.70
11284;DHT22;5698;47.332;11.180;2024-03-08T13:42:11;14.90;62.70
11284;DHT22;5698;47.332;11.180;2024-03-08T13:44:43;14.90;65.70
11284;DHT22;5698;47.332;11.180;2024-03-08T13:47:11;14.80;65.90
11284;DHT22;5698;47.332;11.180;2024-03-08T13:49:39;14.80;66.40
11284;DHT22;5698;47.332;11.180;2024-03-08T13:52:06;14.80;63.90
11284;DHT22;5698;47.332;11.180;2024-03-08T13:54:34;14.60;65.50
11284;DHT22;5698;47.332;11.180;2024-03-08T13:57:02;14.50;65.30
11284;DHT22;5698;47.332;11.180;2024-03-08T13:59:31;14.30;66.80
11284;DHT22;5698;47.332;11.180;2024-03-08T14:01:59;14.10;66.50
11284;DHT22;5698;47.332;11.180;2024-03-08T14:04:27;14.00;66.40
11284;DHT22;5698;47.332;11.180;2024-03-08T14:06:54;13.90;65.90
11284;DHT22;5698;47.332;11.180;2024-03-08T14:09:27;13.90;64.70
11284;DHT22;5698;47.332;11.180;2024-03-08T14:11:54;13.60;67.60
11284;DHT22;5698;47.332;11.180;2024-03-08T14:14:22;13.30;67.40
11284;DHT22;5698;47.332;11.180;2024-03-08T14:16:50;12.90;68.90
11284;DHT22;5698;47.332;11.180;2024-03-08T14:19:20;12.70;68.80
11284;DHT22;5698;47.332;11.180;2024-03-08T14:21:47;12.50;67.60
11284;DHT22;5698;47.332;11.180;2024-03-08T14:24:15;12.30;68.00
11284;DHT22;5698;47.332;11.180;2024-03-08T14:26:42;12.10;69.60
11284;DHT22;5698;47.332;11.180;2024-03-08T14:29:09;11.90;72.00
11284;DHT22;5698;47.332;11.180;2024-03-08T14:31:37;11.60;72.50
11284;DHT22;5698;47.332;11.180;2024-03-08T14:34:05;11.40;73.30
11284;DHT22;5698;47.332;11.180;2024-03-08T14:36:33;11.20;75.40
11284;DHT22;5698;47.332;11.180;2024-03-08T14:39:00;10.90;75.90
11284;DHT22;5698;47.332;11.180;2024-03-08T14:41:27;10.80;74.30
11284;DHT22;5698;47.332;11.180;2024-03-08T14:43:54;10.80;72.00
11284;DHT22;5698;47.332;11.180;2024-03-08T14:46:22;10.70;71.80
11284;DHT22;5698;47.332;11.180;2024-03-08T14:48:50;10.60;69.80
11284;DHT22;5698;47.332;11.180;2024-03-08T14:51:19;10.50;71.20
11284;DHT22;5698;47.332;11.180;2024-03-08T14:53:48;10.40;70.00
11284;DHT22;5698;47.332;11.180;2024-03-08T14:56:15;10.20;70.20
11284;DHT22;5698;47.332;11.180;2024-03-08T14:58:43;10.10;70.50
11284;DHT22;5698;47.332;11.180;2024-03-08T15:01:10;9.90;71.50
11284;DHT22;5698;47.332;11.180;2024-03-08T15:03:39;9.80;72.30
11284;DHT22;5698;47.332;11.180;2024-03-08T15:06:06;9.70;72.00
11284;DHT22;5698;47.332;11.180;2024-03-08T15:08:37;9.60;72.50
11284;DHT22;5698;47.332;11.180;2024-03-08T15:11:05;9.40;72.40
11284;DHT22;5698;47.332;11.180;2024-03-08T15:13:33;9.30;72.80
11284;DHT22;5698;47.332;11.180;2024-03-08T15:16:07;9.20;73.30
11284;DHT22;5698;47.332;11.180;2024-03-08T15:18:40;9.10;73.20
11284;DHT22;5698;47.332;11.180;2024-03-08T15:21:12;9.00;72.40
11284;DHT22;5698;47.332;11.180;2024-03-08T15:23:46;8.90;73.30
11284;DHT22;5698;47.332;11.180;2024-03-08T15:26:16;8.80;73.70
11284;DHT22;5698;47.332;11.180;2024-03-08T15:28:43;8.60;74.50
11284;DHT22;5698;47.332;11.180;2024-03-08T15:31:11;8.50;75.10
11284;DHT22;5698;47.332;11.180;2024-03-08T15:33:39;8.40;75.50
11284;DHT22;5698;47.332;11.180;2024-03-08T15:36:10;8.30;75.90
11284;DHT22;5698;47.332;11.180;2024-03-08T15:38:40;8.20;76.40
11284;DHT22;5698;47.332;11.180;2024-03-08T15:41:08;8.10;77.10
11284;DHT22;5698;47.332;11.180;2024-03-08T15:43:38;8.00;78.80